Time;durP1;ratioP1;P1;durP2;ratioP2;P2;SDS_P1;SDS_P2;PMS_P1;PMS_P2;Temp;Humidity;BMP_temperature;BMP_pressure;BME280_temperature;BME280_humidity;BME280_pressure;Samples;Min_cycle;Max_cycle;Signal;HPM_P1;HPM_P2
2022/11/26 00:00:32;;;;;;;6.20;3.40;;;;;;;;;;5009267;28;20042;-56
2022/11/26 00:03:27;;;;;;;;;;;;;;;;;;;;;
2022/11/26 00:06:28;;;;;;;6.13;3.20;;;;;;;;;;4995918;28;20129;-54
2022/11/26 00:09:00;;;;;;;7.47;3.05;;;;;;;;;;5025903;28;20038;-53
2022/11/26 00:11:46;;;;;;;4.60;3.20;;;;;;;;;;5026085;28;20093;-55
2022/11/26 00:17:33;;;;;;;4.70;3.13;;;;;;;;;;5025931;28;20133;-49
2022/11/26 00:20:24;;;;;;;10.82;3.83;;;;;;;;;;5067056;28;20067;-52
2022/11/26 00:23:25;;;;;;;5.35;3.60;;;;;;;;;;5087744;28;20448;-55
2022/11/26 00:25:57;;;;;;;7.78;3.58;;;;;;;;;;5069383;28;20029;-52
2022/11/26 00:28:58;;;;;;;9.10;2.78;;;;;;;;;;5088259;28;20035;-53
2022/11/26 00:31:38;;;;;;;5.75;3.53;;;;;;;;;;5067570;28;20091;-53
2022/11/26 00:34:18;;;;;;;6.53;4.30;;;;;;;;;;5067877;28;20029;-56
2022/11/26 00:37:07;;;;;;;4.80;3.20;;;;;;;;;;5067738;28;20044;-54
2022/11/26 00:39:42;;;;;;;4.50;2.55;;;;;;;;;;5064439;28;20029;-56
2022/11/26 00:42:23;;;;;;;3.45;2.70;;;;;;;;;;5067891;28;20044;-52
2022/11/26 00:48:24;;;;;;;7.35;3.17;;;;;;;;;;5051390;28;20037;-55
2022/11/26 00:53:50;;;;;;;5.03;2.75;;;;;;;;;;5071478;28;20136;-54
2022/11/26 00:56:32;;;;;;;4.03;2.72;;;;;;;;;;5071748;28;20109;-56
2022/11/26 00:59:23;;;;;;;6.20;3.10;;;;;;;;;;5036121;28;20049;-54
2022/11/26 01:01:59;;;;;;;5.50;3.22;;;;;;;;;;5071168;28;20017;-53
2022/11/26 01:11:03;;;;;;;9.75;3.55;;;;;;;;;;5069711;28;20090;-53
2022/11/26 01:13:38;;;;;;;5.00;2.40;;;;;;;;;;5070363;28;20029;-54
2022/11/26 01:19:45;;;;;;;3.88;2.50;;;;;;;;;;5070849;28;20041;-55
2022/11/26 01:22:36;;;;;;;3.22;2.30;;;;;;;;;;5070815;28;20081;-54
2022/11/26 01:25:21;;;;;;;3.90;2.05;;;;;;;;;;5071085;28;20029;-54
2022/11/26 01:28:00;;;;;;;4.72;1.60;;;;;;;;;;5070898;28;20013;-54
2022/11/26 01:30:33;;;;;;;5.35;1.60;;;;;;;;;;5081808;28;20087;-55
2022/11/26 01:33:21;;;;;;;3.80;1.75;;;;;;;;;;5090799;28;20028;-56
2022/11/26 01:35:50;;;;;;;2.83;1.58;;;;;;;;;;5087089;28;20037;-51
2022/11/26 01:38:26;;;;;;;2.50;1.52;;;;;;;;;;5090732;28;20020;-53
2022/11/26 01:41:49;;;;;;;2.60;2.28;;;;;;;;;;5088105;28;20163;-54
2022/11/26 01:50:46;;;;;;;5.03;2.20;;;;;;;;;;4989301;28;20042;-55
2022/11/26 01:53:34;;;;;;;13.20;1.55;;;;;;;;;;4989437;28;20035;-55
2022/11/26 01:56:26;;;;;;;3.80;1.42;;;;;;;;;;5066374;28;20036;-51
2022/11/26 01:59:24;;;;;;;5.90;1.67;;;;;;;;;;5089176;28;20024;-54
2022/11/26 02:05:18;;;;;;;;;;;;;;;;;;;;;
2022/11/26 02:08:18;;;;;;;5.65;1.70;;;;;;;;;;5089910;28;20489;-52
2022/11/26 02:11:11;;;;;;;2.97;1.80;;;;;;;;;;5089870;28;20070;-54
2022/11/26 02:14:06;;;;;;;4.30;1.90;;;;;;;;;;5090034;28;20039;-53
2022/11/26 02:19:49;;;;;;;8.20;2.38;;;;;;;;;;5058005;28;20029;-50
2022/11/26 02:22:49;;;;;;;5.03;1.80;;;;;;;;;;5089721;28;20036;-53
2022/11/26 02:25:49;;;;;;;3.40;1.77;;;;;;;;;;5071858;28;20029;-54
2022/11/26 02:28:37;;;;;;;3.67;2.13;;;;;;;;;;5072013;28;20025;-52
2022/11/26 02:31:16;;;;;;;5.15;2.15;;;;;;;;;;5076215;28;20048;-54
2022/11/26 02:33:52;;;;;;;8.48;2.03;;;;;;;;;;5069262;28;20037;-56
2022/11/26 02:36:42;;;;;;;3.40;1.55;;;;;;;;;;5068969;28;20116;-56
2022/11/26 02:39:35;;;;;;;4.07;1.88;;;;;;;;;;5069063;28;20029;-56
2022/11/26 02:48:13;;;;;;;;;;;;;;;;;;;;;
2022/11/26 02:57:32;;;;;;;2.25;1.27;;;;;;;;;;5054710;28;20060;-56
2022/11/26 03:00:06;;;;;;;6.32;1.20;;;;;;;;;;5054220;28;20044;-53
2022/11/26 03:03:21;;;;;;;10.05;2.05;;;;;;;;;;4968895;29;20091;-52
2022/11/26 03:08:39;;;;;;;5.22;1.92;;;;;;;;;;5030330;28;20046;-53
2022/11/26 03:14:10;;;;;;;4.88;1.58;;;;;;;;;;5068754;28;20040;-56
2022/11/26 03:16:54;;;;;;;3.67;1.55;;;;;;;;;;5068334;28;20108;-56
2022/11/26 03:19:48;;;;;;;4.20;2.40;;;;;;;;;;5068404;28;20029;-52
2022/11/26 03:22:33;;;;;;;10.55;1.70;;;;;;;;;;5068791;28;20028;-55
2022/11/26 03:25:15;;;;;;;7.40;3.30;;;;;;;;;;5068808;28;20063;-55
2022/11/26 03:28:08;;;;;;;3.33;1.75;;;;;;;;;;5068501;28;20042;-54
2022/11/26 03:30:44;;;;;;;9.57;2.20;;;;;;;;;;5077038;28;20052;-54
2022/11/26 03:33:31;;;;;;;2.30;1.20;;;;;;;;;;5088480;28;20028;-56
2022/11/26 03:36:11;;;;;;;3.65;2.22;;;;;;;;;;5088296;28;20028;-56
2022/11/26 03:38:43;;;;;;;5.80;1.88;;;;;;;;;;5087999;28;20032;-54
2022/11/26 03:41:31;;;;;;;5.43;1.10;;;;;;;;;;5070426;28;20032;-55
2022/11/26 03:44:06;;;;;;;2.65;1.35;;;;;;;;;;5067944;28;20457;-53
2022/11/26 03:47:04;;;;;;;3.85;1.50;;;;;;;;;;5071161;28;20045;-53
2022/11/26 03:52:27;;;;;;;3.92;2.10;;;;;;;;;;5079137;28;20056;-56
2022/11/26 03:55:07;;;;;;;2.85;1.52;;;;;;;;;;5087412;28;20050;-56
2022/11/26 03:57:58;;;;;;;3.50;1.63;;;;;;;;;;5086757;28;20096;-52
2022/11/26 04:00:56;;;;;;;2.80;2.13;;;;;;;;;;5087712;28;20051;-56
2022/11/26 04:06:55;;;;;;;;;;;;;;;;;;4986836;28;20038;-53
2022/11/26 04:15:37;;;;;;;4.82;1.73;;;;;;;;;;5081066;28;20040;-56
2022/11/26 04:18:12;;;;;;;3.00;1.25;;;;;;;;;;5087445;28;20028;-55
2022/11/26 04:21:04;;;;;;;1.70;1.10;;;;;;;;;;5087462;28;20029;-53
2022/11/26 04:23:39;;;;;;;7.50;2.08;;;;;;;;;;5090363;28;20439;-53
2022/11/26 04:26:40;;;;;;;3.00;1.38;;;;;;;;;;5049107;28;20040;-55
2022/11/26 04:35:34;;;;;;;4.30;1.50;;;;;;;;;;5016390;28;20045;-52
2022/11/26 04:38:40;;;;;;;;;;;;;;;;;;;;;
2022/11/26 04:41:54;;;;;;;7.10;2.05;;;;;;;;;;5014966;28;20060;-51
2022/11/26 04:47:26;;;;;;;5.57;1.10;;;;;;;;;;5013988;28;20097;-56
2022/11/26 04:49:59;;;;;;;2.80;1.13;;;;;;;;;;4998820;28;20045;-56
2022/11/26 04:55:44;;;;;;;4.78;1.90;;;;;;;;;;5012293;28;20034;-51
2022/11/26 04:58:25;;;;;;;3.22;2.35;;;;;;;;;;5037560;28;20535;-53
2022/11/26 05:01:24;;;;;;;2.22;1.48;;;;;;;;;;5057114;28;20450;-53
2022/11/26 05:04:24;;;;;;;5.38;2.33;;;;;;;;;;5034020;28;20033;-56
2022/11/26 05:07:04;;;;;;;2.83;1.92;;;;;;;;;;4976098;28;20035;-55
2022/11/26 05:09:52;;;;;;;5.68;2.10;;;;;;;;;;4976196;28;20086;-56
2022/11/26 05:12:52;;;;;;;3.35;1.63;;;;;;;;;;4976297;28;20484;-55
2022/11/26 05:15:33;;;;;;;5.68;1.95;;;;;;;;;;4976268;28;20031;-52
2022/11/26 05:18:09;;;;;;;3.58;2.13;;;;;;;;;;4976682;28;20170;-57
2022/11/26 05:20:57;;;;;;;3.90;2.88;;;;;;;;;;4975907;28;20041;-55
2022/11/26 05:26:59;;;;;;;5.20;2.45;;;;;;;;;;5055692;28;20497;-57
2022/11/26 05:29:37;;;;;;;2.53;1.70;;;;;;;;;;5038951;28;20116;-56
2022/11/26 05:32:24;;;;;;;4.20;2.70;;;;;;;;;;5078018;28;20049;-57
2022/11/26 05:35:15;;;;;;;7.50;2.17;;;;;;;;;;5058305;28;20043;-55
2022/11/26 05:40:39;;;;;;;4.05;1.52;;;;;;;;;;5053928;28;19912;-55
2022/11/26 05:46:42;;;;;;;6.15;2.20;;;;;;;;;;5021330;28;20028;-53
2022/11/26 05:53:05;;;;;;;8.45;2.75;;;;;;;;;;4995079;28;20515;-57
2022/11/26 05:56:05;;;;;;;3.63;2.25;;;;;;;;;;5054423;28;20466;-56
2022/11/26 06:05:18;;;;;;;3.08;1.83;;;;;;;;;;5076429;28;20040;-55
2022/11/26 06:08:01;;;;;;;1.65;1.13;;;;;;;;;;5076557;28;20035;-54
2022/11/26 06:11:03;;;;;;;3.35;2.40;;;;;;;;;;5076988;28;20042;-55
2022/11/26 06:13:39;;;;;;;;;;;;;;;;;;;;;
2022/11/26 06:16:10;;;;;;;7.10;2.92;;;;;;;;;;5076827;28;20112;-57
2022/11/26 06:19:03;;;;;;;4.22;3.10;;;;;;;;;;5042830;28;20462;-53
2022/11/26 06:21:39;;;;;;;5.15;3.58;;;;;;;;;;5064360;28;20067;-52
2022/11/26 06:24:36;;;;;;;4.13;3.35;;;;;;;;;;5075187;28;20028;-50
2022/11/26 06:27:59;;;;;;;3.47;2.38;;;;;;;;;;5074988;28;20130;-52
2022/11/26 06:30:39;;;;;;;4.80;3.00;;;;;;;;;;5067127;28;20436;-53
2022/11/26 06:33:37;;;;;;;;;;;;;;;;;;;;;
2022/11/26 06:36:21;;;;;;;5.75;3.50;;;;;;;;;;5051946;28;20086;-57
2022/11/26 06:42:04;;;;;;;3.58;2.55;;;;;;;;;;5040731;28;20467;-53
2022/11/26 06:44:40;;;;;;;4.95;2.65;;;;;;;;;;5055403;28;20029;-54
2022/11/26 06:47:24;;;;;;;4.80;3.42;;;;;;;;;;5037338;28;20116;-53
2022/11/26 06:50:11;;;;;;;4.78;2.80;;;;;;;;;;5037125;28;20471;-51
2022/11/26 06:53:01;;;;;;;3.78;3.00;;;;;;;;;;5055214;28;20032;-50
2022/11/26 06:55:27;;;;;;;5.25;3.75;;;;;;;;;;5054831;28;20543;-54
2022/11/26 06:58:13;;;;;;;4.70;2.65;;;;;;;;;;5037046;28;20017;-50
2022/11/26 07:01:11;;;;;;;;;;;;;;;;;;;;;
2022/11/26 07:04:03;;;;;;;5.22;3.55;;;;;;;;;;5001358;28;20048;-52
2022/11/26 07:06:43;;;;;;;;;;;;;;;;;;;;;
2022/11/26 07:09:37;;;;;;;5.00;3.35;;;;;;;;;;5055407;28;20394;-54
2022/11/26 07:15:24;;;;;;;;;;;;;;;;;;;;;
2022/11/26 07:21:18;;;;;;;3.90;3.33;;;;;;;;;;5054766;28;20086;-56
2022/11/26 07:23:57;;;;;;;5.40;3.53;;;;;;;;;;5012675;28;20029;-51
2022/11/26 07:26:50;;;;;;;;;;;;;;;;;;;;;
2022/11/26 07:30:09;;;;;;;5.32;2.83;;;;;;;;;;5035146;28;20471;-52
2022/11/26 07:36:08;;;;;;;5.57;2.92;;;;;;;;;;4992757;28;20117;-54
2022/11/26 07:42:02;;;;;;;5.82;3.13;;;;;;;;;;5074508;28;20559;-56
2022/11/26 07:44:59;;;;;;;3.63;2.55;;;;;;;;;;5056169;28;20096;-53
2022/11/26 07:53:57;;;;;;;6.68;4.00;;;;;;;;;;5043081;28;20029;-58
2022/11/26 07:56:26;;;;;;;6.28;3.15;;;;;;;;;;5073241;28;20490;-58
2022/11/26 07:59:10;;;;;;;8.50;4.18;;;;;;;;;;5081131;28;20056;-58
2022/11/26 08:01:45;;;;;;;6.60;3.45;;;;;;;;;;5062627;28;20491;-57
2022/11/26 08:04:15;;;;;;;6.07;3.40;;;;;;;;;;5082121;28;20063;-58
2022/11/26 08:06:53;;;;;;;4.57;2.97;;;;;;;;;;5081268;28;20024;-58
2022/11/26 08:09:50;;;;;;;6.05;4.05;;;;;;;;;;5081556;28;20097;-58
2022/11/26 08:12:38;;;;;;;5.88;3.13;;;;;;;;;;5063234;28;20036;-58
2022/11/26 08:15:31;;;;;;;;;;;;;;;;;;;;;
2022/11/26 08:18:19;;;;;;;7.38;3.72;;;;;;;;;;5080834;28;20119;-57
2022/11/26 08:24:04;;;;;;;5.88;3.70;;;;;;;;;;4979581;28;20037;-58
2022/11/26 08:30:07;;;;;;;4.68;3.90;;;;;;;;;;5057610;28;20032;-58
2022/11/26 08:32:59;;;;;;;7.00;2.95;;;;;;;;;;5037684;28;20037;-58
2022/11/26 08:41:47;;;;;;;6.75;4.10;;;;;;;;;;4986336;28;20062;-58
2022/11/26 08:44:41;;;;;;;;;;;;;;;;;;;;;
2022/11/26 08:47:11;;;;;;;8.07;3.92;;;;;;;;;;5060839;28;20365;-58
2022/11/26 08:49:53;;;;;;;7.20;4.00;;;;;;;;;;5042285;28;20351;-59
2022/11/26 08:55:29;;;;;;;4.65;3.10;;;;;;;;;;5059969;28;20070;-59
2022/11/26 09:02:15;;;;;;;;;;;;;;;;;;;;;
2022/11/26 09:05:03;;;;;;;16.42;9.95;;;;;;;;;;5074458;28;20048;-58
2022/11/26 09:07:44;;;;;;;11.25;8.50;;;;;;;;;;5056804;28;20025;-58
2022/11/26 09:10:19;;;;;;;13.23;8.13;;;;;;;;;;5070337;28;20029;-58
2022/11/26 09:16:13;;;;;;;8.13;6.13;;;;;;;;;;5051244;28;20095;-59
2022/11/26 09:28:28;;;;;;;13.68;11.20;;;;;;;;;;4989958;28;20034;-57
2022/11/26 09:31:22;;;;;;;13.85;8.77;;;;;;;;;;4940791;29;20027;-58
2022/11/26 09:34:21;;;;;;;17.42;12.57;;;;;;;;;;5017170;28;20045;-58
2022/11/26 09:36:53;;;;;;;19.35;15.30;;;;;;;;;;4989600;28;20031;-58
2022/11/26 09:39:29;;;;;;;16.60;9.30;;;;;;;;;;5045458;28;20598;-57
2022/11/26 09:45:05;;;;;;;6.82;5.22;;;;;;;;;;5020974;28;20041;-58
2022/11/26 09:47:48;;;;;;;7.30;5.43;;;;;;;;;;5034696;28;20092;-57
2022/11/26 09:50:44;;;;;;;8.48;6.18;;;;;;;;;;5034612;28;20557;-57
2022/11/26 09:53:25;;;;;;;7.93;4.60;;;;;;;;;;5031251;28;20049;-59
2022/11/26 09:56:16;;;;;;;13.13;5.50;;;;;;;;;;5018016;28;20037;-58
2022/11/26 09:58:49;;;;;;;4.93;4.03;;;;;;;;;;5034713;28;20028;-57
2022/11/26 10:04:55;;;;;;;11.02;9.35;;;;;;;;;;5036562;28;20033;-55
2022/11/26 10:07:28;;;;;;;9.60;7.18;;;;;;;;;;5003830;28;20038;-58
2022/11/26 10:10:15;;;;;;;7.32;4.47;;;;;;;;;;5055886;28;20101;-57
2022/11/26 10:13:06;;;;;;;6.65;4.82;;;;;;;;;;5056221;28;20083;-59
2022/11/26 10:16:23;;;;;;;7.28;4.55;;;;;;;;;;5055767;28;20031;-58
2022/11/26 10:19:11;;;;;;;9.00;5.22;;;;;;;;;;5012452;28;20040;-58
2022/11/26 10:25:44;;;;;;;9.13;6.30;;;;;;;;;;4974386;28;20030;-58
2022/11/26 10:28:48;;;;;;;10.23;5.53;;;;;;;;;;4974241;28;20298;-58
2022/11/26 10:31:29;;;;;;;8.80;5.82;;;;;;;;;;4957871;28;20493;-59
2022/11/26 10:34:12;;;;;;;10.65;7.35;;;;;;;;;;4993461;28;20038;-58
2022/11/26 10:36:53;;;;;;;6.47;4.43;;;;;;;;;;4993057;28;20113;-58
2022/11/26 10:39:37;;;;;;;8.35;4.68;;;;;;;;;;4993957;28;20499;-58
2022/11/26 10:42:18;;;;;;;5.68;4.22;;;;;;;;;;5052500;28;20041;-57
2022/11/26 10:44:58;;;;;;;8.07;4.78;;;;;;;;;;5055671;28;20029;-57
2022/11/26 10:47:46;;;;;;;12.68;4.35;;;;;;;;;;5055075;28;20167;-59
2022/11/26 10:50:26;;;;;;;13.00;5.20;;;;;;;;;;5055036;28;20094;-58
2022/11/26 10:53:04;;;;;;;4.60;3.40;;;;;;;;;;5032037;28;20425;-57
2022/11/26 10:58:44;;;;;;;8.27;3.83;;;;;;;;;;5032753;28;20056;-58
2022/11/26 11:01:26;;;;;;;8.30;4.15;;;;;;;;;;5032872;28;20040;-57
2022/11/26 11:07:39;;;;;;;10.20;3.83;;;;;;;;;;4991473;28;20427;-56
2022/11/26 11:10:34;;;;;;;;;;;;;;;;;;;;;
2022/11/26 11:13:34;;;;;;;5.13;4.20;;;;;;;;;;5017345;28;20048;-59
2022/11/26 11:16:15;;;;;;;10.30;4.30;;;;;;;;;;5032622;28;20032;-59
2022/11/26 11:19:19;;;;;;;5.82;3.80;;;;;;;;;;5014340;28;20042;-59
2022/11/26 11:27:43;;;;;;;5.63;4.45;;;;;;;;;;4993646;28;20511;-59
2022/11/26 11:30:36;;;;;;;6.00;2.92;;;;;;;;;;4976569;28;20053;-59
2022/11/26 11:40:07;;;;;;;8.32;3.42;;;;;;;;;;4965020;28;20057;-59
2022/11/26 11:42:59;;;;;;;6.47;3.85;;;;;;;;;;4993684;28;20034;-60
2022/11/26 11:46:14;;;;;;;10.05;3.47;;;;;;;;;;5063132;28;20041;-59
2022/11/26 11:48:59;;;;;;;8.82;3.97;;;;;;;;;;5071511;28;20039;-60
2022/11/26 11:52:00;;;;;;;7.13;4.10;;;;;;;;;;5074568;28;20074;-58
2022/11/26 11:54:55;;;;;;;4.25;2.67;;;;;;;;;;4957210;28;20385;-58
2022/11/26 11:57:44;;;;;;;7.15;4.72;;;;;;;;;;5024248;28;20375;-58
2022/11/26 12:03:48;;;;;;;4.95;4.28;;;;;;;;;;5011553;28;20034;-58
2022/11/26 12:10:00;;;;;;;10.77;2.70;;;;;;;;;;4972763;28;20432;-58
2022/11/26 12:16:37;;;;;;;6.30;2.63;;;;;;;;;;4990981;28;20607;-58
2022/11/26 12:19:27;;;;;;;8.30;3.47;;;;;;;;;;5043190;28;20097;-59
2022/11/26 12:22:15;;;;;;;;;;;;;;;;;;5074693;28;20462;-58
2022/11/26 12:31:20;;;;;;;;;;;;;;;;;;;;;
2022/11/26 12:40:31;;;;;;;5.70;2.72;;;;;;;;;;5053429;28;20051;-58
2022/11/26 12:49:54;;;;;;;4.82;2.95;;;;;;;;;;5043120;28;20076;-57
2022/11/26 12:52:53;;;;;;;6.10;3.75;;;;;;;;;;5006387;28;20449;-57
2022/11/26 12:58:45;;;;;;;12.85;3.22;;;;;;;;;;4975923;28;20037;-57
2022/11/26 13:01:23;;;;;;;7.25;3.92;;;;;;;;;;5057475;28;20036;-57
2022/11/26 13:07:10;;;;;;;6.80;2.95;;;;;;;;;;5056797;28;20032;-61
2022/11/26 13:14:12;;;;;;;8.95;4.45;;;;;;;;;;4956732;29;20111;-58
2022/11/26 13:17:16;;;;;;;9.30;3.65;;;;;;;;;;4918326;29;20531;-60
2022/11/26 13:23:08;;;;;;;4.50;2.67;;;;;;;;;;4975845;28;20480;-59
2022/11/26 13:32:46;;;;;;;7.03;2.53;;;;;;;;;;4939089;28;20036;-58
2022/11/26 13:35:40;;;;;;;7.03;2.67;;;;;;;;;;4967521;28;20043;-57
2022/11/26 13:45:01;;;;;;;6.63;3.28;;;;;;;;;;4986930;28;20035;-54
2022/11/26 13:47:53;;;;;;;6.55;2.53;;;;;;;;;;4985913;28;20098;-59
2022/11/26 13:51:03;;;;;;;7.65;2.78;;;;;;;;;;5063714;28;20056;-59
2022/11/26 13:53:51;;;;;;;8.73;3.83;;;;;;;;;;5007180;28;20030;-56
2022/11/26 13:59:47;;;;;;;;;;;;;;;;;;;;;
2022/11/26 14:02:41;;;;;;;6.97;3.28;;;;;;;;;;5089615;28;20048;-59
2022/11/26 14:05:41;;;;;;;4.38;3.00;;;;;;;;;;5089382;28;20070;-59
2022/11/26 14:08:26;;;;;;;8.25;2.92;;;;;;;;;;5089194;28;20103;-59
2022/11/26 14:14:19;;;;;;;6.32;4.00;;;;;;;;;;5089840;28;20060;-57
2022/11/26 14:17:30;;;;;;;7.07;3.45;;;;;;;;;;5055539;28;20100;-59
2022/11/26 14:20:14;;;;;;;;;;;;;;;;;;4987000;28;20496;-57
2022/11/26 14:32:26;;;;;;;12.38;3.75;;;;;;;;;;5003520;28;20065;-56
2022/11/26 14:35:17;;;;;;;8.85;4.00;;;;;;;;;;4987478;28;20055;-59
2022/11/26 14:38:10;;;;;;;15.30;4.25;;;;;;;;;;4988114;28;20038;-58
2022/11/26 14:47:46;;;;;;;13.70;4.32;;;;;;;;;;4987538;28;20101;-61
2022/11/26 14:59:45;;;;;;;8.77;3.53;;;;;;;;;;5025157;28;20040;-60
2022/11/26 15:02:46;;;;;;;;;;;;;;;;;;;;;
2022/11/26 15:05:17;;;;;;;7.30;4.13;;;;;;;;;;5056939;28;20048;-58
2022/11/26 15:11:17;;;;;;;6.50;4.43;;;;;;;;;;5036394;28;20101;-55
2022/11/26 15:13:53;;;;;;;5.97;3.80;;;;;;;;;;5033289;28;20033;-59
2022/11/26 15:16:54;;;;;;;10.02;6.70;;;;;;;;;;5049471;28;20032;-57
2022/11/26 15:24:05;;;;;;;;;;;;;;;;;;;;;
2022/11/26 15:26:40;;;;;;;9.65;4.45;;;;;;;;;;5039593;28;20036;-58
2022/11/26 15:32:14;;;;;;;10.63;4.97;;;;;;;;;;5006410;28;20034;-54
2022/11/26 15:41:18;;;;;;;12.52;4.70;;;;;;;;;;5053955;28;20103;-53
2022/11/26 15:44:18;;;;;;;7.22;4.72;;;;;;;;;;5052656;28;20064;-58
2022/11/26 15:47:30;;;;;;;;;;;;;;;;;;;;;
2022/11/26 15:50:37;;;;;;;9.05;4.60;;;;;;;;;;5022252;28;20041;-57
2022/11/26 15:56:39;;;;;;;;;;;;;;;;;;;;;
2022/11/26 15:59:16;;;;;;;6.07;4.72;;;;;;;;;;5011786;28;20026;-56
2022/11/26 16:05:07;;;;;;;5.50;4.10;;;;;;;;;;5004046;28;20030;-58
2022/11/26 16:11:07;;;;;;;10.13;4.47;;;;;;;;;;4989861;28;20438;-54
2022/11/26 16:13:39;;;;;;;12.32;4.78;;;;;;;;;;5006031;28;20411;-58
2022/11/26 16:16:05;;;;;;;11.82;5.10;;;;;;;;;;5021797;28;20506;-55
2022/11/26 16:18:49;;;;;;;7.47;4.22;;;;;;;;;;5055422;28;20024;-56
2022/11/26 16:21:40;;;;;;;7.72;5.20;;;;;;;;;;5039488;28;20421;-56
2022/11/26 16:24:58;;;;;;;6.57;4.55;;;;;;;;;;5056944;28;20025;-55
2022/11/26 16:27:50;;;;;;;11.43;5.68;;;;;;;;;;5055312;28;20413;-53
2022/11/26 16:30:57;;;;;;;15.70;6.05;;;;;;;;;;5057682;28;20025;-58
2022/11/26 16:33:29;;;;;;;9.85;6.40;;;;;;;;;;5060113;28;20050;-57
2022/11/26 16:36:29;;;;;;;5.88;4.95;;;;;;;;;;5066971;28;20035;-56
2022/11/26 16:39:11;;;;;;;11.27;5.82;;;;;;;;;;5077982;28;20028;-58
2022/11/26 16:41:43;;;;;;;6.82;5.22;;;;;;;;;;5044217;28;20056;-58
2022/11/26 16:44:27;;;;;;;12.50;8.13;;;;;;;;;;5076180;28;20439;-57
2022/11/26 16:50:21;;;;;;;7.45;5.90;;;;;;;;;;5077194;28;20041;-56
2022/11/26 16:56:00;;;;;;;10.85;6.82;;;;;;;;;;5075537;28;20064;-57
2022/11/26 16:58:55;;;;;;;;;;;;;;;;;;;;;
2022/11/26 17:01:42;;;;;;;10.27;7.05;;;;;;;;;;5029658;28;20031;-56
2022/11/26 17:04:35;;;;;;;14.27;9.98;;;;;;;;;;5077259;28;20020;-54
2022/11/26 17:07:49;;;;;;;;;;;;;;;;;;;;;
2022/11/26 17:10:32;;;;;;;11.30;9.82;;;;;;;;;;5067787;28;20049;-55
2022/11/26 17:16:59;;;;;;;10.43;6.82;;;;;;;;;;5042706;28;20028;-57
2022/11/26 17:19:41;;;;;;;9.15;6.22;;;;;;;;;;5033319;28;20478;-56
2022/11/26 17:28:17;;;;;;;8.90;7.05;;;;;;;;;;5076922;28;20032;-58
2022/11/26 17:30:59;;;;;;;9.93;7.43;;;;;;;;;;5051583;28;20040;-58
2022/11/26 17:33:52;;;;;;;9.60;6.78;;;;;;;;;;5057731;28;20391;-56
2022/11/26 17:36:34;;;;;;;8.48;5.78;;;;;;;;;;5057689;28;20115;-55
2022/11/26 17:39:45;;;;;;;9.02;6.22;;;;;;;;;;5076648;28;20190;-55
2022/11/26 17:45:20;;;;;;;11.55;7.60;;;;;;;;;;5047391;28;20490;-54
2022/11/26 17:51:00;;;;;;;10.75;6.85;;;;;;;;;;5067834;28;20109;-58
2022/11/26 17:53:47;;;;;;;12.52;8.48;;;;;;;;;;5076123;28;20021;-56
2022/11/26 17:56:39;;;;;;;11.32;6.95;;;;;;;;;;5058931;28;20099;-57
2022/11/26 17:59:05;;;;;;;8.48;6.97;;;;;;;;;;5076807;28;20077;-57
2022/11/26 18:05:06;;;;;;;9.68;8.65;;;;;;;;;;5034057;28;20470;-57
2022/11/26 18:07:53;;;;;;;12.90;8.30;;;;;;;;;;5071749;28;20029;-55
2022/11/26 18:13:47;;;;;;;13.65;6.57;;;;;;;;;;5033484;28;20029;-56
2022/11/26 18:16:43;;;;;;;12.70;8.43;;;;;;;;;;5003060;28;20025;-57
2022/11/26 18:23:01;;;;;;;11.55;7.40;;;;;;;;;;5075453;28;20342;-54
2022/11/26 18:29:02;;;;;;;;;;;;;;;;;;;;;
2022/11/26 18:31:50;;;;;;;11.70;8.07;;;;;;;;;;4970214;28;20047;-54
2022/11/26 18:37:29;;;;;;;10.60;8.75;;;;;;;;;;4974615;28;20591;-58
2022/11/26 18:40:05;;;;;;;9.98;8.98;;;;;;;;;;4975433;28;20057;-56
2022/11/26 18:45:35;;;;;;;9.20;7.30;;;;;;;;;;4969699;28;20035;-58
2022/11/26 18:48:31;;;;;;;14.57;9.65;;;;;;;;;;5067629;28;20086;-56
2022/11/26 18:51:01;;;;;;;16.02;11.30;;;;;;;;;;5073616;28;20079;-55
2022/11/26 18:53:45;;;;;;;13.40;10.75;;;;;;;;;;5071803;28;20142;-57
2022/11/26 18:56:43;;;;;;;13.60;10.60;;;;;;;;;;5074941;28;20025;-57
2022/11/26 18:59:51;;;;;;;;;;;;;;;;;;;;;
2022/11/26 19:05:52;;;;;;;11.82;9.80;;;;;;;;;;5033430;28;20030;-55
2022/11/26 19:08:35;;;;;;;;;;;;;;;;;;;;;
2022/11/26 19:11:06;;;;;;;11.90;9.40;;;;;;;;;;5034222;28;20045;-55
2022/11/26 19:14:12;;;;;;;;;;;;;;;;;;;;;
2022/11/26 19:17:07;;;;;;;11.45;8.52;;;;;;;;;;4954504;29;20043;-54
2022/11/26 19:19:48;;;;;;;8.30;7.47;;;;;;;;;;4932507;29;20046;-53
2022/11/26 19:22:22;;;;;;;15.13;9.35;;;;;;;;;;4949015;28;20520;-56
2022/11/26 19:25:29;;;;;;;11.45;9.10;;;;;;;;;;4993153;28;20034;-56
2022/11/26 19:28:18;;;;;;;13.02;10.27;;;;;;;;;;4976165;28;20053;-54
2022/11/26 19:34:10;;;;;;;9.43;8.45;;;;;;;;;;5043694;28;20060;-57
2022/11/26 19:36:47;;;;;;;11.02;9.82;;;;;;;;;;5056111;28;20486;-56
2022/11/26 19:40:06;;;;;;;10.85;8.65;;;;;;;;;;5046316;28;20036;-59
2022/11/26 19:42:18;;;;;;;11.75;9.25;;;;;;;;;;5049278;28;20367;-56
2022/11/26 19:45:10;;;;;;;13.65;9.07;;;;;;;;;;5086544;28;20042;-55
2022/11/26 19:47:54;;;;;;;13.60;8.73;;;;;;;;;;5085554;28;20082;-54
2022/11/26 19:50:44;;;;;;;12.00;8.35;;;;;;;;;;5085573;28;20063;-58
2022/11/26 19:53:44;;;;;;;8.05;7.20;;;;;;;;;;5065990;28;20040;-57
2022/11/26 19:56:36;;;;;;;9.32;7.72;;;;;;;;;;5086657;28;20027;-57
2022/11/26 19:59:23;;;;;;;8.80;5.72;;;;;;;;;;5085973;28;20020;-57
2022/11/26 20:02:24;;;;;;;9.70;7.20;;;;;;;;;;5084962;28;20047;-59
2022/11/26 20:04:53;;;;;;;;;;;;;;;;;;5086949;28;20040;-56
2022/11/26 20:07:23;;;;;;;7.93;7.05;;;;;;;;;;5085844;28;19919;-57
2022/11/26 20:10:31;;;;;;;10.77;7.63;;;;;;;;;;5085622;28;20043;-57
2022/11/26 20:13:10;;;;;;;8.20;6.22;;;;;;;;;;5086040;28;20048;-56
2022/11/26 20:15:48;;;;;;;;;;;;;;;;;;;;;
2022/11/26 20:27:29;;;;;;;13.75;9.60;;;;;;;;;;5076905;28;20032;-56
2022/11/26 20:30:34;;;;;;;19.77;12.90;;;;;;;;;;5043570;28;20045;-54
2022/11/26 20:36:06;;;;;;;17.55;11.18;;;;;;;;;;5030385;28;20041;-57
2022/11/26 20:38:48;;;;;;;14.50;10.35;;;;;;;;;;5026443;28;20044;-57
2022/11/26 20:41:20;;;;;;;12.93;10.45;;;;;;;;;;5036349;28;20435;-56
2022/11/26 20:47:16;;;;;;;16.55;10.25;;;;;;;;;;5043484;28;20038;-54
2022/11/26 20:50:07;;;;;;;11.43;9.93;;;;;;;;;;5043106;28;20037;-57
2022/11/26 20:56:17;;;;;;;12.45;10.80;;;;;;;;;;5036917;28;20041;-58
2022/11/26 20:58:53;;;;;;;15.10;12.43;;;;;;;;;;5040631;28;20038;-54
2022/11/26 21:01:47;;;;;;;20.88;11.43;;;;;;;;;;5071016;28;20067;-56
2022/11/26 21:04:51;;;;;;;13.13;9.73;;;;;;;;;;5086870;28;20035;-56
2022/11/26 21:07:43;;;;;;;14.32;10.15;;;;;;;;;;5089719;28;20030;-57
2022/11/26 21:10:53;;;;;;;12.63;10.38;;;;;;;;;;5089593;28;20454;-57
2022/11/26 21:13:45;;;;;;;11.68;9.65;;;;;;;;;;4989517;28;20027;-54
2022/11/26 21:16:30;;;;;;;11.30;9.77;;;;;;;;;;5008081;28;20142;-56
2022/11/26 21:28:44;;;;;;;11.07;9.95;;;;;;;;;;5090390;28;20039;-56
2022/11/26 21:31:30;;;;;;;12.07;9.23;;;;;;;;;;5090344;28;20024;-58
2022/11/26 21:34:19;;;;;;;13.77;9.88;;;;;;;;;;5090518;28;20032;-57
2022/11/26 21:46:10;;;;;;;21.30;16.98;;;;;;;;;;5076519;28;20039;-56
2022/11/26 21:48:42;;;;;;;19.92;17.40;;;;;;;;;;5076855;28;20035;-52
2022/11/26 21:51:31;;;;;;;20.20;16.60;;;;;;;;;;5058103;28;20071;-56
2022/11/26 21:54:46;;;;;;;20.73;18.63;;;;;;;;;;5063619;28;20029;-51
2022/11/26 22:03:24;;;;;;;16.08;14.45;;;;;;;;;;5080694;28;20031;-56
2022/11/26 22:12:10;;;;;;;;;;;;;;;;;;;;;
2022/11/26 22:15:47;;;;;;;;;;;;;;;;;;;;;
2022/11/26 22:17:56;;;;;;;11.80;9.70;;;;;;;;;;5078765;28;20055;-55
2022/11/26 22:20:28;;;;;;;10.20;8.85;;;;;;;;;;5066157;28;20039;-54
2022/11/26 22:26:02;;;;;;;12.67;10.83;;;;;;;;;;5080545;28;20051;-54
2022/11/26 22:31:30;;;;;;;13.38;10.60;;;;;;;;;;5089142;28;20048;-56
2022/11/26 22:34:04;;;;;;;13.65;11.60;;;;;;;;;;5089423;28;20028;-56
2022/11/26 22:42:53;;;;;;;17.05;10.65;;;;;;;;;;5026962;28;20040;-57
2022/11/26 22:45:39;;;;;;;18.92;11.30;;;;;;;;;;4965702;28;20108;-53
2022/11/26 22:48:25;;;;;;;12.05;8.80;;;;;;;;;;5088746;28;20097;-58
2022/11/26 22:51:14;;;;;;;9.83;8.83;;;;;;;;;;5070852;28;20028;-55
2022/11/26 22:53:57;;;;;;;12.63;10.13;;;;;;;;;;5040000;28;20039;-56
2022/11/26 22:56:41;;;;;;;14.33;10.80;;;;;;;;;;5088239;28;20024;-56
2022/11/26 23:00:00;;;;;;;12.37;10.30;;;;;;;;;;5088798;28;20051;-54
2022/11/26 23:02:38;;;;;;;8.85;7.80;;;;;;;;;;5069447;28;20458;-56
2022/11/26 23:05:35;;;;;;;;;;;;;;;;;;;;;
2022/11/26 23:08:05;;;;;;;9.30;8.18;;;;;;;;;;5088756;28;20070;-52
2022/11/26 23:14:16;;;;;;;9.75;7.45;;;;;;;;;;5088643;28;20111;-55
2022/11/26 23:19:53;;;;;;;10.70;9.37;;;;;;;;;;5088473;28;20093;-56
2022/11/26 23:22:43;;;;;;;7.37;6.67;;;;;;;;;;5088549;28;20027;-54
2022/11/26 23:25:31;;;;;;;9.18;6.95;;;;;;;;;;5088487;28;20086;-56
2022/11/26 23:28:12;;;;;;;7.57;6.43;;;;;;;;;;5088671;28;20029;-54
2022/11/26 23:31:01;;;;;;;10.32;6.53;;;;;;;;;;5064868;28;20055;-55
2022/11/26 23:33:52;;;;;;;7.77;7.03;;;;;;;;;;5087813;28;20095;-52
2022/11/26 23:36:21;;;;;;;9.25;8.10;;;;;;;;;;5068908;28;20048;-56
2022/11/26 23:39:00;;;;;;;8.73;7.47;;;;;;;;;;5087344;28;20029;-57
2022/11/26 23:41:54;;;;;;;9.83;7.10;;;;;;;;;;5070055;28;20115;-57
2022/11/26 23:44:38;;;;;;;7.17;6.47;;;;;;;;;;5036240;28;20123;-55
2022/11/26 23:47:48;;;;;;;7.43;6.40;;;;;;;;;;5080452;28;20371;-54
2022/11/26 23:54:06;;;;;;;7.67;6.43;;;;;;;;;;4986469;28;20070;-56
2022/11/26 23:56:51;;;;;;;6.83;6.23;;;;;;;;;;4993484;28;20030;-55
